Time;durP1;ratioP1;P1;durP2;ratioP2;P2;SDS_P1;SDS_P2;PMS_P1;PMS_P2;Temp;Humidity;BMP_temperature;BMP_pressure;BME280_temperature;BME280_humidity;BME280_pressure;Samples;Min_cycle;Max_cycle;Signal;HPM_P1;HPM_P2
2023/06/01 00:01:27;;;;;;;15.10;8.80;;;;;;;-128.00;-1.00;-1.00;105539;1253;1004700;-78
2023/06/01 00:03:53;;;;;;;17.80;10.50;;;;;;;-128.00;-1.00;-1.00;105555;1254;1004097;-78
2023/06/01 00:06:20;;;;;;;16.00;9.00;;;;;;;-128.00;-1.00;-1.00;105546;1256;1004040;-78
2023/06/01 00:08:47;;;;;;;15.70;8.20;;;;;;;-128.00;-1.00;-1.00;105517;1253;1004242;-77
2023/06/01 00:11:13;;;;;;;15.10;8.80;;;;;;;-128.00;-1.00;-1.00;105528;1254;1004837;-78
2023/06/01 00:13:40;;;;;;;16.50;9.10;;;;;;;-128.00;-1.00;-1.00;105528;1255;1004218;-79
2023/06/01 00:16:06;;;;;;;16.00;9.30;;;;;;;-128.00;-1.00;-1.00;105538;1254;1004189;-78
2023/06/01 00:18:33;;;;;;;18.60;8.80;;;;;;;-128.00;-1.00;-1.00;105537;1253;1004867;-79
2023/06/01 00:21:00;;;;;;;13.60;8.50;;;;;;;-128.00;-1.00;-1.00;105541;1253;1003712;-79
2023/06/01 00:23:28;;;;;;;17.10;8.70;;;;;;;-128.00;-1.00;-1.00;105537;1253;1003874;-78
2023/06/01 00:25:54;;;;;;;16.00;9.70;;;;;;;-128.00;-1.00;-1.00;105543;1253;1003665;-79
2023/06/01 00:28:21;;;;;;;17.20;8.50;;;;;;;-128.00;-1.00;-1.00;105550;1252;1004372;-78
2023/06/01 00:30:47;;;;;;;14.90;8.80;;;;;;;-128.00;-1.00;-1.00;105555;1253;1003501;-78
2023/06/01 00:33:14;;;;;;;14.90;8.30;;;;;;;-128.00;-1.00;-1.00;105552;1254;1005042;-79
2023/06/01 00:35:40;;;;;;;16.80;8.70;;;;;;;-128.00;-1.00;-1.00;105543;1252;1005323;-78
2023/06/01 00:38:07;;;;;;;17.40;9.30;;;;;;;-128.00;-1.00;-1.00;105525;1254;1004435;-78
2023/06/01 00:40:33;;;;;;;16.70;7.60;;;;;;;-128.00;-1.00;-1.00;105550;1253;1003924;-78
2023/06/01 00:43:00;;;;;;;14.20;7.80;;;;;;;-128.00;-1.00;-1.00;105507;1254;1004339;-78
2023/06/01 00:45:27;;;;;;;15.20;7.40;;;;;;;-128.00;-1.00;-1.00;105494;1254;1004043;-79
2023/06/01 00:47:53;;;;;;;15.30;7.60;;;;;;;-128.00;-1.00;-1.00;105443;1254;1005182;-78
2023/06/01 00:50:19;;;;;;;18.30;9.10;;;;;;;-128.00;-1.00;-1.00;105373;1254;1003678;-79
2023/06/01 00:52:46;;;;;;;13.60;9.00;;;;;;;-128.00;-1.00;-1.00;105331;1254;1004300;-77
2023/06/01 00:55:12;;;;;;;17.40;10.60;;;;;;;-128.00;-1.00;-1.00;105413;1253;1004094;-78
2023/06/01 00:57:39;;;;;;;14.20;8.40;;;;;;;-128.00;-1.00;-1.00;105572;1254;1003995;-77
2023/06/01 01:00:09;;;;;;;16.40;7.80;;;;;;;-128.00;-1.00;-1.00;105554;1254;1004470;-78
2023/06/01 01:02:38;;;;;;;14.00;8.50;;;;;;;-128.00;-1.00;-1.00;105738;1253;1045772;-79
2023/06/01 01:05:09;;;;;;;11.00;7.40;;;;;;;-128.00;-1.00;-1.00;105593;1254;1046054;-79
2023/06/01 01:07:52;;;;;;;13.20;7.90;;;;;;;-128.00;-1.00;-1.00;105392;1253;1062030;-79
2023/06/01 01:10:37;;;;;;;13.60;7.50;;;;;;;-128.00;-1.00;-1.00;105432;1254;1059471;-78
2023/06/01 01:13:22;;;;;;;15.80;7.80;;;;;;;-128.00;-1.00;-1.00;105528;1254;1059207;-78
2023/06/01 01:15:59;;;;;;;17.30;7.80;;;;;;;-128.00;-1.00;-1.00;105516;1254;1046262;-79
2023/06/01 01:18:45;;;;;;;12.90;8.00;;;;;;;-128.00;-1.00;-1.00;105578;1251;1046754;-78
2023/06/01 01:21:28;;;;;;;14.70;8.40;;;;;;;-128.00;-1.00;-1.00;105771;1253;1062685;-78
2023/06/01 01:23:58;;;;;;;15.80;8.10;;;;;;;-128.00;-1.00;-1.00;105559;1253;1057511;-78
2023/06/01 01:26:31;;;;;;;15.10;7.80;;;;;;;-128.00;-1.00;-1.00;105557;1254;1061137;-79
2023/06/01 01:29:03;;;;;;;10.30;7.50;;;;;;;-128.00;-1.00;-1.00;105534;1253;1045418;-78
2023/06/01 01:31:30;;;;;;;11.50;7.40;;;;;;;-128.00;-1.00;-1.00;105760;1254;1046905;-78
2023/06/01 01:33:56;;;;;;;12.70;7.60;;;;;;;-128.00;-1.00;-1.00;105521;1254;1003963;-79
2023/06/01 01:36:23;;;;;;;15.10;9.00;;;;;;;-128.00;-1.00;-1.00;105554;1254;1004172;-78
2023/06/01 01:38:50;;;;;;;11.30;7.70;;;;;;;-128.00;-1.00;-1.00;105501;1255;1004221;-78
2023/06/01 01:41:16;;;;;;;13.20;7.80;;;;;;;-128.00;-1.00;-1.00;105505;1254;1005418;-79
2023/06/01 01:43:42;;;;;;;11.90;7.30;;;;;;;-128.00;-1.00;-1.00;105489;1253;1003803;-78
2023/06/01 01:46:24;;;;;;;11.30;7.10;;;;;;;-128.00;-1.00;-1.00;105374;1254;1003765;-79
2023/06/01 01:48:54;;;;;;;13.10;6.70;;;;;;;-128.00;-1.00;-1.00;105509;1254;1057486;-78
2023/06/01 01:51:37;;;;;;;11.80;8.00;;;;;;;-128.00;-1.00;-1.00;105339;1254;1060917;-78
2023/06/01 01:54:05;;;;;;;11.40;7.60;;;;;;;-128.00;-1.00;-1.00;105419;1254;1045381;-78
2023/06/01 01:56:31;;;;;;;12.00;7.70;;;;;;;-128.00;-1.00;-1.00;105674;1254;1004638;-78
2023/06/01 01:58:57;;;;;;;14.10;7.20;;;;;;;-128.00;-1.00;-1.00;105327;1254;1004656;-78
2023/06/01 02:01:24;;;;;;;12.10;7.20;;;;;;;-128.00;-1.00;-1.00;105242;1254;1003293;-77
2023/06/01 02:03:58;;;;;;;14.20;7.00;;;;;;;-128.00;-1.00;-1.00;105264;1254;1003998;-78
2023/06/01 02:06:25;;;;;;;13.50;7.30;;;;;;;-128.00;-1.00;-1.00;105720;1254;1046802;-79
2023/06/01 02:08:51;;;;;;;14.30;6.90;;;;;;;-128.00;-1.00;-1.00;105481;1254;1004696;-79
2023/06/01 02:11:18;;;;;;;29.50;9.40;;;;;;;-128.00;-1.00;-1.00;105419;1254;1004465;-79
2023/06/01 02:13:44;;;;;;;15.30;8.40;;;;;;;-128.00;-1.00;-1.00;105417;1257;1004049;-78
2023/06/01 02:16:11;;;;;;;16.30;7.50;;;;;;;-128.00;-1.00;-1.00;105428;1253;1004223;-78
2023/06/01 02:18:39;;;;;;;13.70;7.50;;;;;;;-128.00;-1.00;-1.00;105243;1254;1005627;-79
2023/06/01 02:21:05;;;;;;;12.90;7.10;;;;;;;-128.00;-1.00;-1.00;105413;1254;1005427;-79
2023/06/01 02:23:31;;;;;;;13.70;7.40;;;;;;;-128.00;-1.00;-1.00;105246;1254;1003663;-78
2023/06/01 02:25:58;;;;;;;14.80;8.30;;;;;;;-128.00;-1.00;-1.00;105402;1258;1003999;-77
2023/06/01 02:28:26;;;;;;;17.70;8.10;;;;;;;-128.00;-1.00;-1.00;105471;1254;1003785;-79
2023/06/01 02:30:53;;;;;;;12.90;7.30;;;;;;;-128.00;-1.00;-1.00;105405;1253;1004983;-78
2023/06/01 02:33:19;;;;;;;11.40;7.60;;;;;;;-128.00;-1.00;-1.00;105756;1254;1003785;-78
2023/06/01 02:35:45;;;;;;;12.70;7.20;;;;;;;-128.00;-1.00;-1.00;105747;1253;1004620;-79
2023/06/01 02:38:12;;;;;;;15.50;7.30;;;;;;;-128.00;-1.00;-1.00;105771;1254;1005223;-77
2023/06/01 02:40:38;;;;;;;12.80;7.30;;;;;;;-128.00;-1.00;-1.00;105760;1252;1003960;-79
2023/06/01 02:43:05;;;;;;;11.50;6.70;;;;;;;-128.00;-1.00;-1.00;105713;1253;1004198;-79
2023/06/01 02:45:31;;;;;;;12.60;7.70;;;;;;;-128.00;-1.00;-1.00;105758;1254;1004968;-79
2023/06/01 02:47:59;;;;;;;15.10;7.40;;;;;;;-128.00;-1.00;-1.00;105752;1254;1004794;-79
2023/06/01 02:50:26;;;;;;;11.40;7.90;;;;;;;-128.00;-1.00;-1.00;105730;1254;1006420;-79
2023/06/01 02:52:52;;;;;;;11.00;8.40;;;;;;;-128.00;-1.00;-1.00;105534;1254;1003963;-78
2023/06/01 02:55:19;;;;;;;16.40;8.70;;;;;;;-128.00;-1.00;-1.00;105507;1254;1004565;-79
2023/06/01 02:57:45;;;;;;;17.10;7.90;;;;;;;-128.00;-1.00;-1.00;105558;1254;1005268;-78
2023/06/01 03:00:15;;;;;;;10.00;7.80;;;;;;;-128.00;-1.00;-1.00;105505;1254;1006461;-79
2023/06/01 03:02:42;;;;;;;14.80;8.10;;;;;;;-128.00;-1.00;-1.00;105434;1254;1058861;-79
2023/06/01 03:05:09;;;;;;;13.90;9.50;;;;;;;-128.00;-1.00;-1.00;105414;1253;1005766;-78
2023/06/01 03:07:35;;;;;;;13.60;7.20;;;;;;;-128.00;-1.00;-1.00;105511;1253;1003717;-79
2023/06/01 03:10:03;;;;;;;13.00;8.10;;;;;;;-128.00;-1.00;-1.00;105477;1254;1189984;-78
2023/06/01 03:12:29;;;;;;;10.30;8.00;;;;;;;-128.00;-1.00;-1.00;105737;1254;1004590;-79
2023/06/01 03:14:56;;;;;;;12.60;7.30;;;;;;;-128.00;-1.00;-1.00;105742;1252;1004425;-78
2023/06/01 03:17:22;;;;;;;12.30;7.10;;;;;;;-128.00;-1.00;-1.00;105630;1254;1003773;-78
2023/06/01 03:19:48;;;;;;;15.00;7.30;;;;;;;-128.00;-1.00;-1.00;105568;1253;1004364;-79
2023/06/01 03:22:15;;;;;;;11.90;8.00;;;;;;;-128.00;-1.00;-1.00;105564;1251;1004560;-79
2023/06/01 03:24:41;;;;;;;14.90;7.60;;;;;;;-128.00;-1.00;-1.00;105572;1251;1004069;-79
2023/06/01 03:27:08;;;;;;;12.20;8.20;;;;;;;-128.00;-1.00;-1.00;105569;1251;1003844;-79
2023/06/01 03:29:34;;;;;;;13.80;7.90;;;;;;;-128.00;-1.00;-1.00;105564;1251;1004285;-79
2023/06/01 03:32:01;;;;;;;13.50;8.90;;;;;;;-128.00;-1.00;-1.00;105593;1255;1003797;-79
2023/06/01 03:34:28;;;;;;;15.00;7.80;;;;;;;-128.00;-1.00;-1.00;105591;1251;1003612;-78
2023/06/01 03:36:54;;;;;;;10.20;7.30;;;;;;;-128.00;-1.00;-1.00;105559;1251;1004191;-79
2023/06/01 03:39:21;;;;;;;10.40;8.10;;;;;;;-128.00;-1.00;-1.00;105590;1251;1003617;-79
2023/06/01 03:41:48;;;;;;;13.30;8.20;;;;;;;-128.00;-1.00;-1.00;105482;1254;1004619;-78
2023/06/01 03:44:14;;;;;;;17.40;10.10;;;;;;;-128.00;-1.00;-1.00;105447;1253;1003967;-79
2023/06/01 03:46:40;;;;;;;16.90;8.20;;;;;;;-128.00;-1.00;-1.00;105368;1252;1004791;-78
2023/06/01 03:49:07;;;;;;;17.40;8.50;;;;;;;-128.00;-1.00;-1.00;105517;1251;1004851;-77
2023/06/01 03:51:33;;;;;;;15.60;7.10;;;;;;;-128.00;-1.00;-1.00;105581;1251;1003778;-78
2023/06/01 03:54:00;;;;;;;13.00;7.30;;;;;;;-128.00;-1.00;-1.00;105572;1251;1005924;-79
2023/06/01 03:56:27;;;;;;;11.00;7.60;;;;;;;-128.00;-1.00;-1.00;105618;1251;1004005;-78
2023/06/01 03:58:54;;;;;;;10.90;6.60;;;;;;;-128.00;-1.00;-1.00;105586;1251;1004663;-79
2023/06/01 04:01:22;;;;;;;11.40;6.80;;;;;;;-128.00;-1.00;-1.00;105576;1251;1004554;-79
2023/06/01 04:03:48;;;;;;;10.70;6.90;;;;;;;-128.00;-1.00;-1.00;105585;1251;1004129;-78
2023/06/01 04:06:17;;;;;;;11.00;7.30;;;;;;;-128.00;-1.00;-1.00;105468;1251;1004142;-78
2023/06/01 04:08:55;;;;;;;11.80;7.50;;;;;;;-128.00;-1.00;-1.00;105476;1251;1004507;-80
2023/06/01 04:11:24;;;;;;;10.40;6.90;;;;;;;-128.00;-1.00;-1.00;105594;1251;1046954;-79
2023/06/01 04:13:51;;;;;;;16.20;7.80;;;;;;;-128.00;-1.00;-1.00;105595;1251;1061804;-78
2023/06/01 04:16:18;;;;;;;15.30;7.20;;;;;;;-128.00;-1.00;-1.00;105608;1251;1004234;-79
2023/06/01 04:18:44;;;;;;;14.20;7.40;;;;;;;-128.00;-1.00;-1.00;105595;1251;1004180;-79
2023/06/01 04:21:10;;;;;;;15.00;7.40;;;;;;;-128.00;-1.00;-1.00;105555;1251;1003892;-79
2023/06/01 04:23:37;;;;;;;13.60;7.20;;;;;;;-128.00;-1.00;-1.00;105604;1251;1004920;-78
2023/06/01 04:26:04;;;;;;;10.10;7.00;;;;;;;-128.00;-1.00;-1.00;105590;1251;1003920;-78
2023/06/01 04:28:32;;;;;;;10.50;7.90;;;;;;;-128.00;-1.00;-1.00;105629;1251;1004522;-79
2023/06/01 04:30:58;;;;;;;12.70;6.80;;;;;;;-128.00;-1.00;-1.00;105584;1251;1004208;-78
2023/06/01 04:33:25;;;;;;;14.10;7.10;;;;;;;-128.00;-1.00;-1.00;105496;1251;1004718;-78
2023/06/01 04:35:54;;;;;;;15.60;11.00;;;;;;;-128.00;-1.00;-1.00;105567;1251;1005069;-79
2023/06/01 04:38:21;;;;;;;11.20;7.30;;;;;;;-128.00;-1.00;-1.00;105598;1251;1062069;-79
2023/06/01 04:40:47;;;;;;;11.50;7.80;;;;;;;-128.00;-1.00;-1.00;105444;1254;1005347;-78
2023/06/01 04:43:18;;;;;;;17.70;7.90;;;;;;;-128.00;-1.00;-1.00;105547;1253;1004602;-79
2023/06/01 04:45:45;;;;;;;13.90;7.00;;;;;;;-128.00;-1.00;-1.00;105545;1253;1047222;-78
2023/06/01 04:48:12;;;;;;;13.50;7.20;;;;;;;-128.00;-1.00;-1.00;105581;1251;1005341;-78
2023/06/01 04:50:40;;;;;;;13.40;6.90;;;;;;;-128.00;-1.00;-1.00;105605;1251;1003545;-78
2023/06/01 04:53:06;;;;;;;12.70;6.60;;;;;;;-128.00;-1.00;-1.00;105591;1251;1004810;-79
2023/06/01 04:55:32;;;;;;;13.90;7.10;;;;;;;-128.00;-1.00;-1.00;105594;1251;1003974;-78
2023/06/01 04:57:59;;;;;;;16.90;7.60;;;;;;;-128.00;-1.00;-1.00;105589;1251;1004848;-79
2023/06/01 05:00:25;;;;;;;10.70;6.30;;;;;;;-128.00;-1.00;-1.00;105531;1251;1003626;-79
2023/06/01 05:02:52;;;;;;;12.40;6.40;;;;;;;-128.00;-1.00;-1.00;105496;1253;1003788;-78
2023/06/01 05:05:19;;;;;;;14.70;7.40;;;;;;;-128.00;-1.00;-1.00;105456;1251;1004592;-78
2023/06/01 05:07:45;;;;;;;10.70;6.20;;;;;;;-128.00;-1.00;-1.00;105521;1251;1005936;-79
2023/06/01 05:10:12;;;;;;;10.60;6.50;;;;;;;-128.00;-1.00;-1.00;105472;1253;1004924;-78
2023/06/01 05:12:39;;;;;;;8.80;5.50;;;;;;;-128.00;-1.00;-1.00;105080;1253;1004102;-78
2023/06/01 05:15:07;;;;;;;8.80;5.70;;;;;;;-128.00;-1.00;-1.00;105526;1254;1003824;-78
2023/06/01 05:17:33;;;;;;;10.90;5.60;;;;;;;-128.00;-1.00;-1.00;105502;1254;1003614;-78
2023/06/01 05:20:00;;;;;;;11.50;5.70;;;;;;;-128.00;-1.00;-1.00;105498;1254;1004056;-78
2023/06/01 05:22:26;;;;;;;9.20;5.60;;;;;;;-128.00;-1.00;-1.00;105511;1251;1004153;-79
2023/06/01 05:24:53;;;;;;;8.40;5.00;;;;;;;-128.00;-1.00;-1.00;105516;1251;1005112;-79
2023/06/01 05:27:19;;;;;;;12.60;6.40;;;;;;;-128.00;-1.00;-1.00;105410;1253;1004103;-78
2023/06/01 05:29:46;;;;;;;11.20;6.30;;;;;;;-128.00;-1.00;-1.00;105527;1251;1004081;-78
2023/06/01 05:32:12;;;;;;;9.60;6.50;;;;;;;-128.00;-1.00;-1.00;105533;1251;1005144;-78
2023/06/01 05:34:39;;;;;;;10.80;5.70;;;;;;;-128.00;-1.00;-1.00;105466;1254;1003808;-80
2023/06/01 05:37:05;;;;;;;13.00;5.70;;;;;;;-128.00;-1.00;-1.00;105624;1252;1004062;-79
2023/06/01 05:39:32;;;;;;;9.30;5.40;;;;;;;-128.00;-1.00;-1.00;105501;1253;1004695;-80
2023/06/01 05:41:58;;;;;;;16.10;6.90;;;;;;;-128.00;-1.00;-1.00;105444;1251;1004077;-79
2023/06/01 05:44:25;;;;;;;12.10;7.20;;;;;;;-128.00;-1.00;-1.00;105494;1251;1004152;-80
2023/06/01 05:46:52;;;;;;;10.90;6.60;;;;;;;-128.00;-1.00;-1.00;105487;1252;1004870;-80
2023/06/01 05:49:19;;;;;;;14.30;6.50;;;;;;;-128.00;-1.00;-1.00;105437;1252;1003921;-79
2023/06/01 05:51:46;;;;;;;12.10;5.90;;;;;;;-128.00;-1.00;-1.00;105264;1252;1003830;-80
2023/06/01 05:54:12;;;;;;;9.20;6.40;;;;;;;-128.00;-1.00;-1.00;105509;1252;1004067;-80
2023/06/01 05:56:40;;;;;;;12.20;7.40;;;;;;;-128.00;-1.00;-1.00;105480;1254;1004059;-79
2023/06/01 05:59:06;;;;;;;16.30;6.70;;;;;;;-128.00;-1.00;-1.00;105491;1252;1004256;-80
2023/06/01 06:01:33;;;;;;;12.80;6.30;;;;;;;-128.00;-1.00;-1.00;105364;1253;1005094;-79
2023/06/01 06:04:00;;;;;;;13.60;6.60;;;;;;;-128.00;-1.00;-1.00;105499;1252;1004499;-80
2023/06/01 06:06:26;;;;;;;13.30;6.40;;;;;;;-128.00;-1.00;-1.00;105468;1253;1004885;-78
2023/06/01 06:08:52;;;;;;;9.10;6.20;;;;;;;-128.00;-1.00;-1.00;105517;1253;1004480;-79
2023/06/01 06:11:19;;;;;;;12.70;6.30;;;;;;;-128.00;-1.00;-1.00;105532;1253;1004508;-78
2023/06/01 06:13:48;;;;;;;11.00;5.70;;;;;;;-128.00;-1.00;-1.00;105559;1252;1004580;-80
2023/06/01 06:16:15;;;;;;;10.10;5.60;;;;;;;-128.00;-1.00;-1.00;105504;1253;1064019;-79
2023/06/01 06:18:42;;;;;;;11.00;6.20;;;;;;;-128.00;-1.00;-1.00;105469;1253;1003646;-78
2023/06/01 06:21:08;;;;;;;10.90;5.80;;;;;;;-128.00;-1.00;-1.00;105431;1253;1004391;-80
2023/06/01 06:23:35;;;;;;;16.10;6.50;;;;;;;-128.00;-1.00;-1.00;105540;1253;1005174;-78
2023/06/01 06:26:02;;;;;;;13.70;5.60;;;;;;;-128.00;-1.00;-1.00;105582;1252;1004466;-80
2023/06/01 06:28:28;;;;;;;15.70;5.70;;;;;;;-128.00;-1.00;-1.00;105537;1253;1004402;-80
2023/06/01 06:30:56;;;;;;;8.40;6.00;;;;;;;-128.00;-1.00;-1.00;105586;1251;1003962;-79
2023/06/01 06:33:23;;;;;;;10.10;5.90;;;;;;;-128.00;-1.00;-1.00;105510;1253;1005843;-79
2023/06/01 06:35:49;;;;;;;9.70;5.20;;;;;;;-128.00;-1.00;-1.00;105522;1252;1004843;-79
2023/06/01 06:38:16;;;;;;;7.30;4.10;;;;;;;-128.00;-1.00;-1.00;105518;1253;1005760;-78
2023/06/01 06:40:43;;;;;;;6.70;4.30;;;;;;;-128.00;-1.00;-1.00;105539;1253;1003467;-80
2023/06/01 06:43:09;;;;;;;8.40;4.50;;;;;;;-128.00;-1.00;-1.00;105504;1253;1004612;-79
2023/06/01 06:45:36;;;;;;;12.80;4.50;;;;;;;-128.00;-1.00;-1.00;105449;1253;1003887;-80
2023/06/01 06:48:02;;;;;;;10.90;4.90;;;;;;;-128.00;-1.00;-1.00;105512;1251;1004777;-79
2023/06/01 06:50:29;;;;;;;7.40;4.10;;;;;;;-128.00;-1.00;-1.00;105561;1253;1005158;-80
2023/06/01 06:52:55;;;;;;;8.40;4.50;;;;;;;-128.00;-1.00;-1.00;105500;1253;1003980;-80
2023/06/01 06:55:22;;;;;;;10.60;4.40;;;;;;;-128.00;-1.00;-1.00;105537;1253;1005222;-80
2023/06/01 06:57:48;;;;;;;10.80;7.30;;;;;;;-128.00;-1.00;-1.00;105516;1253;1004652;-79
2023/06/01 07:00:15;;;;;;;7.40;3.90;;;;;;;-128.00;-1.00;-1.00;105527;1253;1003678;-79
2023/06/01 07:02:42;;;;;;;8.30;3.80;;;;;;;-128.00;-1.00;-1.00;105561;1253;1004315;-79
2023/06/01 07:05:10;;;;;;;7.10;3.80;;;;;;;-128.00;-1.00;-1.00;105612;1253;1004411;-79
2023/06/01 07:07:37;;;;;;;8.50;4.00;;;;;;;-128.00;-1.00;-1.00;105498;1253;1058473;-78
2023/06/01 07:10:05;;;;;;;8.00;3.40;;;;;;;-128.00;-1.00;-1.00;105332;1254;1005312;-80
2023/06/01 07:12:32;;;;;;;17.90;5.90;;;;;;;-128.00;-1.00;-1.00;105530;1253;1004184;-79
2023/06/01 07:14:58;;;;;;;8.70;3.90;;;;;;;-128.00;-1.00;-1.00;105564;1251;1003681;-81
2023/06/01 07:17:25;;;;;;;8.10;3.40;;;;;;;-128.00;-1.00;-1.00;105557;1254;1004030;-79
2023/06/01 07:19:51;;;;;;;8.80;3.40;;;;;;;-128.00;-1.00;-1.00;105554;1253;1003774;-79
2023/06/01 07:22:18;;;;;;;7.80;3.80;;;;;;;-128.00;-1.00;-1.00;105453;1253;1004222;-79
2023/06/01 07:24:44;;;;;;;4.90;3.00;;;;;;;-128.00;-1.00;-1.00;105489;1252;1004527;-81
2023/06/01 07:27:12;;;;;;;9.20;3.60;;;;;;;-128.00;-1.00;-1.00;105547;1253;1004321;-82
2023/06/01 07:29:39;;;;;;;7.00;3.70;;;;;;;-128.00;-1.00;-1.00;105542;1254;1005546;-79
2023/06/01 07:32:05;;;;;;;6.10;3.60;;;;;;;-128.00;-1.00;-1.00;105551;1253;1003748;-81
2023/06/01 07:34:33;;;;;;;6.90;3.50;;;;;;;-128.00;-1.00;-1.00;105527;1252;1004186;-79
2023/06/01 07:36:59;;;;;;;7.60;2.90;;;;;;;-128.00;-1.00;-1.00;105540;1254;1003938;-79
2023/06/01 07:39:26;;;;;;;7.60;3.60;;;;;;;-128.00;-1.00;-1.00;105554;1252;1004093;-79
2023/06/01 07:41:53;;;;;;;5.70;2.70;;;;;;;-128.00;-1.00;-1.00;105606;1252;1003655;-79
2023/06/01 07:44:20;;;;;;;9.40;2.40;;;;;;;-128.00;-1.00;-1.00;105602;1252;1004403;-79
2023/06/01 07:46:46;;;;;;;3.60;2.50;;;;;;;-128.00;-1.00;-1.00;105499;1252;1004752;-81
2023/06/01 07:49:14;;;;;;;3.80;2.00;;;;;;;-128.00;-1.00;-1.00;105411;1253;1005387;-79
2023/06/01 07:51:42;;;;;;;7.30;2.60;;;;;;;-128.00;-1.00;-1.00;105570;1252;1005604;-79
2023/06/01 07:54:09;;;;;;;3.50;2.20;;;;;;;-128.00;-1.00;-1.00;105562;1252;1004908;-79
2023/06/01 07:56:36;;;;;;;4.30;2.10;;;;;;;-128.00;-1.00;-1.00;105561;1253;1004119;-81
2023/06/01 07:59:02;;;;;;;6.00;2.20;;;;;;;-128.00;-1.00;-1.00;105474;1253;1004975;-81
2023/06/01 08:01:29;;;;;;;6.00;2.30;;;;;;;-128.00;-1.00;-1.00;105391;1252;1004673;-81
2023/06/01 08:03:59;;;;;;;3.70;2.00;;;;;;;-128.00;-1.00;-1.00;105555;1253;1004258;-81
2023/06/01 08:06:26;;;;;;;6.40;2.40;;;;;;;-128.00;-1.00;-1.00;105565;1252;1061321;-79
2023/06/01 08:08:52;;;;;;;4.50;2.50;;;;;;;-128.00;-1.00;-1.00;105517;1253;1005606;-82
2023/06/01 08:11:19;;;;;;;5.20;2.40;;;;;;;-128.00;-1.00;-1.00;105512;1253;1003785;-81
2023/06/01 08:13:45;;;;;;;4.90;2.40;;;;;;;-128.00;-1.00;-1.00;105437;1253;1003910;-81
2023/06/01 08:16:15;;;;;;;7.50;2.50;;;;;;;-128.00;-1.00;-1.00;105536;1252;1005072;-79
2023/06/01 08:18:41;;;;;;;5.50;2.00;;;;;;;-128.00;-1.00;-1.00;105524;1253;1061756;-82
2023/06/01 08:21:09;;;;;;;3.80;1.90;;;;;;;-128.00;-1.00;-1.00;105530;1253;1003733;-81
2023/06/01 08:23:35;;;;;;;4.20;1.80;;;;;;;-128.00;-1.00;-1.00;105505;1254;1004543;-79
2023/06/01 08:26:02;;;;;;;5.40;2.20;;;;;;;-128.00;-1.00;-1.00;105552;1253;1005516;-79
2023/06/01 08:28:28;;;;;;;4.30;2.10;;;;;;;-128.00;-1.00;-1.00;105570;1253;1004107;-81
2023/06/01 08:30:56;;;;;;;4.40;1.90;;;;;;;-128.00;-1.00;-1.00;105588;1251;1004128;-82
2023/06/01 08:33:22;;;;;;;2.60;2.00;;;;;;;-128.00;-1.00;-1.00;105521;1253;1004212;-82
2023/06/01 08:35:49;;;;;;;4.30;1.80;;;;;;;-128.00;-1.00;-1.00;105553;1253;1003987;-80
2023/06/01 08:38:15;;;;;;;5.60;1.80;;;;;;;-128.00;-1.00;-1.00;105535;1252;1004377;-80
2023/06/01 08:40:41;;;;;;;6.20;2.20;;;;;;;-128.00;-1.00;-1.00;105536;1252;1004450;-80
2023/06/01 08:43:16;;;;;;;3.40;2.10;;;;;;;-128.00;-1.00;-1.00;105561;1253;1003950;-80
2023/06/01 08:45:43;;;;;;;7.20;2.50;;;;;;;-128.00;-1.00;-1.00;105531;1253;1057288;-80
2023/06/01 08:48:09;;;;;;;4.50;2.30;;;;;;;-128.00;-1.00;-1.00;105422;1253;1004092;-80
2023/06/01 08:50:36;;;;;;;9.60;2.50;;;;;;;-128.00;-1.00;-1.00;105534;1253;1004075;-80
2023/06/01 08:53:03;;;;;;;4.70;2.40;;;;;;;-128.00;-1.00;-1.00;105334;1253;1003577;-82
2023/06/01 08:55:30;;;;;;;7.10;2.60;;;;;;;-128.00;-1.00;-1.00;105546;1253;1004373;-82
2023/06/01 08:57:56;;;;;;;4.00;2.00;;;;;;;-128.00;-1.00;-1.00;105539;1253;1004732;-81
2023/06/01 09:00:23;;;;;;;4.40;2.80;;;;;;;-128.00;-1.00;-1.00;105534;1253;1004036;-82
2023/06/01 09:02:50;;;;;;;7.60;2.50;;;;;;;-128.00;-1.00;-1.00;105562;1252;1004332;-80
2023/06/01 09:05:18;;;;;;;6.00;2.60;;;;;;;-128.00;-1.00;-1.00;105557;1253;1005326;-80
2023/06/01 09:07:44;;;;;;;3.90;2.40;;;;;;;-128.00;-1.00;-1.00;105555;1253;1005081;-80
2023/06/01 09:10:11;;;;;;;10.50;3.00;;;;;;;-128.00;-1.00;-1.00;105568;1253;1003748;-81
2023/06/01 09:12:40;;;;;;;2.40;2.00;;;;;;;-128.00;-1.00;-1.00;105572;1253;1004320;-82
2023/06/01 09:15:11;;;;;;;5.30;2.70;;;;;;;-128.00;-1.00;-1.00;105567;1251;1044967;-80
2023/06/01 09:17:38;;;;;;;4.70;2.30;;;;;;;-128.00;-1.00;-1.00;105543;1251;1047183;-80
2023/06/01 09:20:06;;;;;;;5.10;2.30;;;;;;;-128.00;-1.00;-1.00;105517;1252;1004373;-81
2023/06/01 09:22:42;;;;;;;5.50;2.10;;;;;;;-128.00;-1.00;-1.00;105372;1254;1004955;-80
2023/06/01 09:25:09;;;;;;;3.50;2.40;;;;;;;-128.00;-1.00;-1.00;105501;1252;1059133;-80
2023/06/01 09:27:46;;;;;;;5.80;2.50;;;;;;;-128.00;-1.00;-1.00;105563;1252;1004797;-81
2023/06/01 09:30:13;;;;;;;4.70;2.70;;;;;;;-128.00;-1.00;-1.00;105545;1251;1046456;-82
2023/06/01 09:32:41;;;;;;;4.20;2.00;;;;;;;-128.00;-1.00;-1.00;105554;1251;1003514;-81
2023/06/01 09:35:07;;;;;;;6.60;2.20;;;;;;;-128.00;-1.00;-1.00;105521;1253;1003710;-82
2023/06/01 09:37:36;;;;;;;5.10;2.50;;;;;;;-128.00;-1.00;-1.00;105561;1252;1004173;-81
2023/06/01 09:40:04;;;;;;;5.50;2.40;;;;;;;-128.00;-1.00;-1.00;105487;1252;1004309;-82
2023/06/01 09:42:34;;;;;;;5.40;2.70;;;;;;;-128.00;-1.00;-1.00;105399;1252;1004264;-80
2023/06/01 09:45:14;;;;;;;4.70;2.90;;;;;;;-128.00;-1.00;-1.00;105459;1254;1061725;-81
2023/06/01 09:47:40;;;;;;;5.80;2.80;;;;;;;-128.00;-1.00;-1.00;105530;1253;1058659;-82
2023/06/01 09:50:07;;;;;;;5.00;2.90;;;;;;;-128.00;-1.00;-1.00;105538;1253;1004060;-81
2023/06/01 09:52:33;;;;;;;10.20;2.50;;;;;;;-128.00;-1.00;-1.00;105414;1253;1006040;-80
2023/06/01 09:55:07;;;;;;;8.40;2.90;;;;;;;-128.00;-1.00;-1.00;105412;1253;1004677;-82
2023/06/01 09:57:33;;;;;;;4.90;2.20;;;;;;;-128.00;-1.00;-1.00;105476;1252;1061619;-82
2023/06/01 10:00:05;;;;;;;4.90;2.90;;;;;;;-128.00;-1.00;-1.00;105550;1253;1005419;-81
2023/06/01 10:02:32;;;;;;;6.20;2.80;;;;;;;-128.00;-1.00;-1.00;105422;1252;1059000;-81
2023/06/01 10:04:58;;;;;;;5.00;2.90;;;;;;;-128.00;-1.00;-1.00;105539;1252;1004793;-81
2023/06/01 10:07:33;;;;;;;4.00;2.60;;;;;;;-128.00;-1.00;-1.00;105483;1252;1004094;-80
2023/06/01 10:10:02;;;;;;;4.10;2.40;;;;;;;-128.00;-1.00;-1.00;105571;1252;1061368;-81
2023/06/01 10:12:28;;;;;;;8.40;2.40;;;;;;;-128.00;-1.00;-1.00;105570;1252;1057390;-82
2023/06/01 10:14:55;;;;;;;6.00;2.60;;;;;;;-128.00;-1.00;-1.00;105417;1252;1003835;-82
2023/06/01 10:17:22;;;;;;;6.10;2.30;;;;;;;-128.00;-1.00;-1.00;105567;1252;1006624;-82
2023/06/01 10:19:49;;;;;;;5.20;2.50;;;;;;;-128.00;-1.00;-1.00;105618;1252;1004638;-82
2023/06/01 10:22:16;;;;;;;3.60;2.60;;;;;;;-128.00;-1.00;-1.00;105585;1252;1004432;-82
2023/06/01 10:24:42;;;;;;;7.50;3.00;;;;;;;-128.00;-1.00;-1.00;105476;1252;1004862;-80
2023/06/01 10:27:29;;;;;;;16.30;3.00;;;;;;;-128.00;-1.00;-1.00;105599;1252;1004823;-82
2023/06/01 10:29:55;;;;;;;6.50;2.90;;;;;;;-128.00;-1.00;-1.00;105545;1253;1044921;-82
2023/06/01 10:32:37;;;;;;;4.80;2.00;;;;;;;-128.00;-1.00;-1.00;105641;1252;1003511;-82
2023/06/01 10:35:04;;;;;;;8.00;2.00;;;;;;;-128.00;-1.00;-1.00;105628;1252;1061280;-81
2023/06/01 10:37:31;;;;;;;4.80;2.20;;;;;;;-128.00;-1.00;-1.00;105425;1253;1004492;-80
2023/06/01 10:40:17;;;;;;;6.70;2.40;;;;;;;-128.00;-1.00;-1.00;105505;1254;1003965;-80
2023/06/01 10:42:45;;;;;;;7.70;3.10;;;;;;;-128.00;-1.00;-1.00;105537;1252;1046145;-80
2023/06/01 10:45:35;;;;;;;8.10;2.30;;;;;;;-128.00;-1.00;-1.00;105453;1252;1004830;-82
2023/06/01 10:48:02;;;;;;;7.10;2.50;;;;;;;-128.00;-1.00;-1.00;105395;1253;1061907;-82
2023/06/01 10:50:28;;;;;;;5.40;2.40;;;;;;;-128.00;-1.00;-1.00;105498;1252;1004947;-82
2023/06/01 10:52:55;;;;;;;5.60;2.80;;;;;;;-128.00;-1.00;-1.00;105382;1253;1004152;-80
2023/06/01 10:55:23;;;;;;;5.90;2.50;;;;;;;-128.00;-1.00;-1.00;105532;1253;1003754;-80
2023/06/01 10:57:50;;;;;;;3.50;2.50;;;;;;;-128.00;-1.00;-1.00;105603;1252;1003778;-80
2023/06/01 11:00:22;;;;;;;3.90;2.40;;;;;;;-128.00;-1.00;-1.00;105440;1253;1004237;-84
2023/06/01 11:02:49;;;;;;;4.60;2.10;;;;;;;-128.00;-1.00;-1.00;105601;1252;1057797;-81
2023/06/01 11:05:38;;;;;;;;;;;;;;;-128.00;-1.00;-1.00;105568;1252;1004285;-83
2023/06/01 11:08:09;;;;;;;3.90;2.50;;;;;;;-128.00;-1.00;-1.00;105556;1251;1046241;-82
2023/06/01 11:10:54;;;;;;;5.60;2.30;;;;;;;-128.00;-1.00;-1.00;105560;1251;1047196;-82
2023/06/01 11:13:29;;;;;;;4.50;2.80;;;;;;;-128.00;-1.00;-1.00;105521;1253;1060904;-81
2023/06/01 11:16:13;;;;;;;6.20;2.40;;;;;;;-128.00;-1.00;-1.00;105659;1253;1058946;-82